createdAt,value
2019-03-28T00:02:14.160Z,91.70
2019-03-28T00:04:42.648Z,91.70
2019-03-28T00:07:11.111Z,91.40
2019-03-28T00:09:39.529Z,91.70
2019-03-28T00:12:07.932Z,92.00
2019-03-28T00:14:36.358Z,91.70
2019-03-28T00:17:04.837Z,91.80
2019-03-28T00:19:33.248Z,91.90
2019-03-28T00:22:01.711Z,92.00
2019-03-28T00:24:31.754Z,92.00
2019-03-28T00:27:00.164Z,92.00
2019-03-28T00:29:28.725Z,92.00
2019-03-28T00:31:58.873Z,92.00
2019-03-28T00:34:27.202Z,92.00
2019-03-28T00:36:55.690Z,92.00
2019-03-28T00:39:24.157Z,92.10
2019-03-28T00:41:52.566Z,92.10
2019-03-28T00:44:21.135Z,92.20
2019-03-28T00:46:49.621Z,92.20
2019-03-28T00:49:18.160Z,92.20
2019-03-28T00:51:46.735Z,92.30
2019-03-28T00:54:15.138Z,92.30
2019-03-28T00:56:47.128Z,92.40
2019-03-28T00:59:13.742Z,92.40
2019-03-28T01:01:42.155Z,92.50
2019-03-28T01:04:10.674Z,92.50
2019-03-28T01:06:39.141Z,92.70
2019-03-28T01:09:09.391Z,92.80
2019-03-28T01:11:37.862Z,92.70
2019-03-28T01:14:06.274Z,92.70
2019-03-28T01:16:34.747Z,92.70
2019-03-28T01:19:03.281Z,92.90
2019-03-28T01:21:31.766Z,93.10
2019-03-28T01:24:00.238Z,93.30
2019-03-28T01:26:28.734Z,93.50
2019-03-28T01:28:57.213Z,93.70
2019-03-28T01:31:25.626Z,93.90
2019-03-28T01:33:54.097Z,94.20
2019-03-28T01:36:22.502Z,94.50
2019-03-28T01:38:50.910Z,94.70
2019-03-28T01:41:19.389Z,95.00
2019-03-28T01:43:47.814Z,95.10
2019-03-28T01:46:16.214Z,95.20
2019-03-28T01:48:44.617Z,95.20
2019-03-28T01:51:13.044Z,95.20
2019-03-28T01:53:41.511Z,95.40
2019-03-28T01:56:09.914Z,95.60
2019-03-28T01:58:38.321Z,95.80
2019-03-28T02:01:06.738Z,96.10
2019-03-28T02:03:35.210Z,96.40
2019-03-28T02:06:03.861Z,96.50
2019-03-28T02:08:32.266Z,96.80
2019-03-28T02:11:00.674Z,96.70
2019-03-28T02:13:29.151Z,96.90
2019-03-28T02:15:57.621Z,96.90
2019-03-28T02:18:26.040Z,97.20
2019-03-28T02:20:54.583Z,97.40
2019-03-28T02:23:23.070Z,97.60
2019-03-28T02:25:51.609Z,97.50
2019-03-28T02:28:20.006Z,97.50
2019-03-28T02:30:48.493Z,97.70
2019-03-28T02:33:16.901Z,98.00
2019-03-28T02:35:45.378Z,98.20
2019-03-28T02:38:13.861Z,97.90
2019-03-28T02:40:42.710Z,97.90
2019-03-28T02:43:11.352Z,98.60
2019-03-28T02:45:39.818Z,98.80
2019-03-28T02:48:08.216Z,98.80
2019-03-28T02:50:37.726Z,98.70
2019-03-28T02:53:06.414Z,98.90
2019-03-28T02:55:34.823Z,98.90
2019-03-28T02:58:03.302Z,98.80
2019-03-28T03:00:31.641Z,99.00
2019-03-28T03:03:00.037Z,99.30
2019-03-28T03:05:28.437Z,99.40
2019-03-28T03:07:56.852Z,99.30
2019-03-28T03:10:25.330Z,99.30
2019-03-28T03:12:54.040Z,99.90
2019-03-28T03:15:22.507Z,99.90
2019-03-28T03:17:53.037Z,99.90
2019-03-28T03:20:21.509Z,99.90
2019-03-28T03:22:49.928Z,99.90
2019-03-28T03:25:18.398Z,99.90
2019-03-28T03:27:57.828Z,99.90
2019-03-28T03:30:16.959Z,99.60
2019-03-28T03:32:45.343Z,99.60
2019-03-28T03:35:14.918Z,99.60
2019-03-28T03:37:43.415Z,99.70
2019-03-28T03:40:12.795Z,99.90
2019-03-28T03:42:41.199Z,99.90
2019-03-28T03:45:09.816Z,99.90
2019-03-28T03:47:38.283Z,99.90
2019-03-28T03:50:07.674Z,99.90
2019-03-28T03:52:36.030Z,99.90
2019-03-28T03:55:06.460Z,99.90
2019-03-28T03:57:34.870Z,99.90
2019-03-28T04:00:05.736Z,99.90
2019-03-28T04:02:34.187Z,99.90
2019-03-28T04:05:02.691Z,99.90
2019-03-28T04:07:31.171Z,99.90
2019-03-28T04:09:59.647Z,99.90
2019-03-28T04:12:28.333Z,99.90
2019-03-28T04:14:56.912Z,99.90
2019-03-28T04:17:25.403Z,99.90
2019-03-28T04:19:53.974Z,99.90
2019-03-28T04:22:22.456Z,99.90
2019-03-28T04:24:51.039Z,99.90
2019-03-28T04:27:19.524Z,99.90
2019-03-28T04:29:47.992Z,99.90
2019-03-28T04:32:16.471Z,99.90
2019-03-28T04:34:44.950Z,99.90
2019-03-28T04:37:13.429Z,99.90
2019-03-28T04:39:42.478Z,99.90
2019-03-28T04:42:11.205Z,99.90
2019-03-28T04:44:39.684Z,99.90
2019-03-28T04:47:08.164Z,99.90
2019-03-28T04:49:36.748Z,99.90
2019-03-28T04:52:05.326Z,99.90
2019-03-28T04:54:33.813Z,99.90
2019-03-28T04:57:02.284Z,99.90
2019-03-28T04:59:30.763Z,99.90
2019-03-28T05:02:03.234Z,99.90
2019-03-28T05:04:29.363Z,99.90
2019-03-28T05:06:57.821Z,99.90
2019-03-28T05:09:26.369Z,99.90
2019-03-28T05:11:54.904Z,99.90
2019-03-28T05:14:23.387Z,99.90
2019-03-28T05:16:51.857Z,99.90
2019-03-28T05:19:20.339Z,99.90
2019-03-28T05:21:48.818Z,99.90
2019-03-28T05:24:17.297Z,99.90
2019-03-28T05:26:45.773Z,99.90
2019-03-28T05:29:14.767Z,99.90
2019-03-28T05:31:43.224Z,99.90
2019-03-28T05:34:13.533Z,99.90
2019-03-28T05:36:42.147Z,99.90
2019-03-28T05:39:12.367Z,99.90
2019-03-28T05:41:40.847Z,99.90
2019-03-28T05:44:09.327Z,99.90
2019-03-28T05:46:38.361Z,99.90
2019-03-28T05:49:06.999Z,99.90
2019-03-28T05:51:35.479Z,99.90
2019-03-28T05:54:05.841Z,99.90
2019-03-28T05:56:33.970Z,99.90
2019-03-28T05:59:10.850Z,99.90
2019-03-28T06:01:32.595Z,99.90
2019-03-28T06:04:01.026Z,99.90
2019-03-28T06:06:29.430Z,99.90
2019-03-28T06:08:57.910Z,99.90
2019-03-28T06:11:26.426Z,99.90
2019-03-28T06:13:54.874Z,99.90
2019-03-28T06:16:23.365Z,99.90
2019-03-28T06:18:51.828Z,99.90
2019-03-28T06:21:20.242Z,99.90
2019-03-28T06:23:48.714Z,99.90
2019-03-28T06:26:17.133Z,99.90
2019-03-28T06:28:45.586Z,99.90
2019-03-28T06:31:15.728Z,99.90
2019-03-28T06:33:44.170Z,99.90
2019-03-28T06:36:12.570Z,99.80
2019-03-28T06:38:40.984Z,99.80
2019-03-28T06:41:09.382Z,99.80
2019-03-28T06:43:37.862Z,99.80
2019-03-28T06:46:06.273Z,99.90
2019-03-28T06:48:34.746Z,99.90
2019-03-28T06:51:03.219Z,99.50
2019-03-28T06:53:31.711Z,99.40
2019-03-28T06:56:00.123Z,99.20
2019-03-28T06:58:28.662Z,99.20
2019-03-28T07:00:57.142Z,99.00
2019-03-28T07:03:25.546Z,99.00
2019-03-28T07:05:53.962Z,98.90
2019-03-28T07:08:22.361Z,99.00
2019-03-28T07:10:50.775Z,99.20
2019-03-28T07:13:19.337Z,99.10
2019-03-28T07:15:47.744Z,98.80
2019-03-28T07:18:16.217Z,98.80
2019-03-28T07:20:44.698Z,98.60
2019-03-28T07:23:13.119Z,98.20
2019-03-28T07:25:41.519Z,98.20
2019-03-28T07:28:09.935Z,98.80
2019-03-28T07:30:40.226Z,98.50
2019-03-28T07:33:08.650Z,98.20
2019-03-28T07:35:37.118Z,98.20
2019-03-28T07:38:05.527Z,98.30
2019-03-28T07:40:34.072Z,97.90
2019-03-28T07:43:02.621Z,98.30
2019-03-28T07:45:34.185Z,97.80
2019-03-28T07:48:01.146Z,97.60
2019-03-28T07:50:29.627Z,97.50
2019-03-28T07:52:58.037Z,97.40
2019-03-28T07:55:26.543Z,97.40
2019-03-28T07:57:54.923Z,97.10
2019-03-28T08:00:23.402Z,97.00
2019-03-28T08:02:51.807Z,97.00
2019-03-28T08:05:20.221Z,96.90
2019-03-28T08:07:48.702Z,96.60
2019-03-28T08:10:17.111Z,96.90
2019-03-28T08:12:45.587Z,96.60
2019-03-28T08:15:14.122Z,95.70
2019-03-28T08:17:42.534Z,95.90
2019-03-28T08:20:11.478Z,95.90
2019-03-28T08:22:39.878Z,95.70
2019-03-28T08:25:11.651Z,95.30
2019-03-28T08:27:38.509Z,94.90
2019-03-28T08:30:18.160Z,94.90
2019-03-28T08:32:39.824Z,94.70
2019-03-28T08:35:07.998Z,94.20
2019-03-28T08:37:37.190Z,93.80
2019-03-28T08:40:08.822Z,93.60
2019-03-28T08:42:37.308Z,93.40
2019-03-28T08:45:07.184Z,93.40
2019-03-28T08:47:35.722Z,93.00
2019-03-28T08:50:06.165Z,92.70
2019-03-28T08:52:34.562Z,92.50
2019-03-28T08:55:03.438Z,92.30
2019-03-28T08:57:31.838Z,91.90
2019-03-28T09:00:00.443Z,91.50
2019-03-28T09:02:28.919Z,91.30
2019-03-28T09:04:57.566Z,90.60
2019-03-28T09:07:26.094Z,89.80
2019-03-28T09:09:54.546Z,89.20
2019-03-28T09:12:23.977Z,89.60
2019-03-28T09:14:52.419Z,89.50
2019-03-28T09:17:23.736Z,88.40
2019-03-28T09:19:50.946Z,88.10
2019-03-28T09:22:19.354Z,88.30
2019-03-28T09:24:47.831Z,86.50
2019-03-28T09:27:16.278Z,86.10
2019-03-28T09:29:44.651Z,86.00
2019-03-28T09:32:13.122Z,86.60
2019-03-28T09:34:41.525Z,87.90
2019-03-28T09:37:09.932Z,88.00
2019-03-28T09:39:38.436Z,88.50
2019-03-28T09:42:06.838Z,88.20
2019-03-28T09:44:35.345Z,88.00
2019-03-28T09:47:03.748Z,88.40
2019-03-28T09:49:32.157Z,88.10
2019-03-28T09:52:00.566Z,88.00
2019-03-28T09:54:29.030Z,87.30
2019-03-28T09:56:57.434Z,86.30
2019-03-28T09:59:25.830Z,86.40
2019-03-28T10:01:54.318Z,86.50
2019-03-28T10:04:22.717Z,86.10
2019-03-28T10:06:51.103Z,85.40
2019-03-28T10:09:19.586Z,84.50
2019-03-28T10:11:48.000Z,84.50
2019-03-28T10:14:16.401Z,83.00
2019-03-28T10:16:45.039Z,82.60
2019-03-28T10:19:13.521Z,80.80
2019-03-28T10:21:41.986Z,80.70
2019-03-28T10:24:10.948Z,80.50
2019-03-28T10:26:39.990Z,79.20
2019-03-28T10:29:08.395Z,79.80
2019-03-28T10:31:36.951Z,79.60
2019-03-28T10:34:05.428Z,78.40
2019-03-28T10:36:34.070Z,77.20
2019-03-28T10:39:02.714Z,77.10
2019-03-28T10:41:31.229Z,77.30
2019-03-28T10:43:59.621Z,76.70
2019-03-28T10:46:28.030Z,75.00
2019-03-28T10:48:56.559Z,74.70
2019-03-28T10:51:25.029Z,75.70
2019-03-28T10:53:53.455Z,76.10
2019-03-28T10:56:23.416Z,75.40
2019-03-28T10:58:51.970Z,74.50
2019-03-28T11:01:36.070Z,74.60
2019-03-28T11:03:50.486Z,74.00
2019-03-28T11:06:18.892Z,73.60
2019-03-28T11:08:47.362Z,73.00
2019-03-28T11:11:15.844Z,72.50
2019-03-28T11:13:44.246Z,72.30
2019-03-28T11:16:14.977Z,72.30
2019-03-28T11:18:42.766Z,71.80
2019-03-28T11:21:11.174Z,70.20
2019-03-28T11:23:39.650Z,69.70
2019-03-28T11:26:08.064Z,68.70
2019-03-28T11:28:36.570Z,69.00
2019-03-28T11:31:05.046Z,69.20
2019-03-28T11:33:33.522Z,68.60
2019-03-28T11:36:01.937Z,67.20
2019-03-28T11:38:30.338Z,66.10
2019-03-28T11:40:58.776Z,64.60
2019-03-28T11:43:27.318Z,65.10
2019-03-28T11:45:55.793Z,64.80
2019-03-28T11:48:24.446Z,65.00
2019-03-28T11:50:52.977Z,63.30
2019-03-28T11:53:21.444Z,59.50
2019-03-28T11:55:49.915Z,59.60
2019-03-28T11:58:18.386Z,60.40
2019-03-28T12:00:47.847Z,59.00
2019-03-28T12:03:16.292Z,57.90
2019-03-28T12:05:44.667Z,56.90
2019-03-28T12:08:13.130Z,56.80
2019-03-28T12:10:41.691Z,55.70
2019-03-28T12:13:10.175Z,55.20
2019-03-28T12:15:38.575Z,55.00
2019-03-28T12:18:07.047Z,54.40
2019-03-28T12:20:35.453Z,53.90
2019-03-28T12:23:03.999Z,55.00
2019-03-28T12:25:32.430Z,55.50
2019-03-28T12:28:00.840Z,54.70
2019-03-28T12:30:29.322Z,55.30
2019-03-28T12:32:57.803Z,54.90
2019-03-28T12:35:26.213Z,55.60
2019-03-28T12:37:54.604Z,55.50
2019-03-28T12:40:23.023Z,55.70
2019-03-28T12:42:51.498Z,55.80
2019-03-28T12:45:19.910Z,55.90
2019-03-28T12:47:48.303Z,55.90
2019-03-28T12:50:16.780Z,56.00
2019-03-28T12:52:45.235Z,56.70
2019-03-28T12:55:13.646Z,57.00
2019-03-28T12:57:42.132Z,56.50
2019-03-28T13:00:11.570Z,56.30
2019-03-28T13:02:40.058Z,56.70
2019-03-28T13:05:08.802Z,55.80
2019-03-28T13:07:37.220Z,55.90
2019-03-28T13:10:10.543Z,55.00
2019-03-28T13:12:39.078Z,54.60
2019-03-28T13:15:07.562Z,54.20
2019-03-28T13:17:35.964Z,54.10
2019-03-28T13:20:07.015Z,53.80
2019-03-28T13:22:35.485Z,53.20
2019-03-28T13:25:05.936Z,53.10
2019-03-28T13:27:34.853Z,52.50
2019-03-28T13:30:05.289Z,52.90
2019-03-28T13:32:41.588Z,52.00
2019-03-28T13:35:06.312Z,52.10
2019-03-28T13:37:34.729Z,51.00
2019-03-28T13:40:04.693Z,51.00
2019-03-28T13:42:33.106Z,51.40
2019-03-28T13:45:01.522Z,51.40
2019-03-28T13:47:30.001Z,52.10
2019-03-28T13:49:58.412Z,51.80
2019-03-28T13:52:26.896Z,52.20
2019-03-28T13:54:55.375Z,51.90
2019-03-28T13:57:25.167Z,52.40
2019-03-28T13:59:53.660Z,51.50
2019-03-28T14:02:22.147Z,51.40
2019-03-28T14:04:50.565Z,51.20
2019-03-28T14:07:19.000Z,51.10
2019-03-28T14:09:47.468Z,51.30
2019-03-28T14:12:15.952Z,51.40
2019-03-28T14:14:44.372Z,52.00
2019-03-28T14:17:12.785Z,52.20
2019-03-28T14:19:41.277Z,52.40
2019-03-28T14:22:09.758Z,53.00
2019-03-28T14:24:38.177Z,52.60
2019-03-28T14:27:06.669Z,51.90
2019-03-28T14:29:35.173Z,51.90
2019-03-28T14:32:03.671Z,51.70
2019-03-28T14:34:32.172Z,51.60
2019-03-28T14:37:00.592Z,51.40
2019-03-28T14:39:29.084Z,51.40
2019-03-28T14:41:57.583Z,50.70
2019-03-28T14:44:26.077Z,50.70
2019-03-28T14:46:54.493Z,50.60
2019-03-28T14:49:22.954Z,50.40
2019-03-28T14:51:51.504Z,50.20
2019-03-28T14:54:19.913Z,49.90
2019-03-28T14:56:48.325Z,49.50
2019-03-28T14:59:16.743Z,49.60
2019-03-28T15:01:45.324Z,49.50
2019-03-28T15:04:13.887Z,49.70
2019-03-28T15:06:42.297Z,50.00
2019-03-28T15:09:10.804Z,50.30
2019-03-28T15:11:39.300Z,49.90
2019-03-28T15:14:07.791Z,50.00
2019-03-28T15:16:37.471Z,50.00
2019-03-28T15:19:06.388Z,49.50
2019-03-28T15:21:34.871Z,49.70
2019-03-28T15:24:03.281Z,49.30
2019-03-28T15:26:31.866Z,49.40
2019-03-28T15:29:00.335Z,49.40
2019-03-28T15:31:28.909Z,50.20
2019-03-28T15:33:57.461Z,51.20
2019-03-28T15:36:25.986Z,51.70
2019-03-28T15:38:55.321Z,52.50
2019-03-28T15:41:23.812Z,52.90
2019-03-28T15:43:52.231Z,53.50
2019-03-28T15:46:20.667Z,54.00
2019-03-28T15:48:49.248Z,54.50
2019-03-28T15:51:17.664Z,54.60
2019-03-28T15:53:46.217Z,54.70
2019-03-28T15:56:14.700Z,54.40
2019-03-28T15:58:43.116Z,54.50
2019-03-28T16:01:11.744Z,55.00
2019-03-28T16:03:52.347Z,55.30
2019-03-28T16:06:12.301Z,55.70
2019-03-28T16:08:40.728Z,55.90
2019-03-28T16:11:09.154Z,55.80
2019-03-28T16:13:37.799Z,56.30
2019-03-28T16:16:06.449Z,56.60
2019-03-28T16:18:34.860Z,57.20
2019-03-28T16:21:03.272Z,57.50
2019-03-28T16:23:31.688Z,57.70
2019-03-28T16:26:00.175Z,57.60
2019-03-28T16:28:28.678Z,58.00
2019-03-28T16:30:57.106Z,58.30
2019-03-28T16:33:25.592Z,58.50
2019-03-28T16:35:54.003Z,58.50
2019-03-28T16:38:22.422Z,57.90
2019-03-28T16:40:50.824Z,58.40
2019-03-28T16:43:19.322Z,58.30
2019-03-28T16:45:47.792Z,58.70
2019-03-28T16:48:16.328Z,59.20
2019-03-28T16:50:44.815Z,59.50
2019-03-28T16:53:13.226Z,59.90
2019-03-28T16:55:41.631Z,60.70
2019-03-28T16:58:10.119Z,61.10
2019-03-28T17:00:38.614Z,61.10
2019-03-28T17:03:07.702Z,61.10
2019-03-28T17:05:36.413Z,61.20
2019-03-28T17:08:04.899Z,61.80
2019-03-28T17:10:41.657Z,62.20
2019-03-28T17:13:10.072Z,62.50
2019-03-28T17:15:38.572Z,62.70
2019-03-28T17:18:07.055Z,62.50
2019-03-28T17:20:35.547Z,62.50
2019-03-28T17:23:03.952Z,62.40
2019-03-28T17:25:32.372Z,62.20
2019-03-28T17:28:00.832Z,61.20
2019-03-28T17:30:29.269Z,61.20
2019-03-28T17:32:57.692Z,61.10
2019-03-28T17:35:26.181Z,60.90
2019-03-28T17:37:54.676Z,60.50
2019-03-28T17:40:23.274Z,61.10
2019-03-28T17:42:51.806Z,60.50
2019-03-28T17:45:20.285Z,60.90
2019-03-28T17:47:48.704Z,61.20
2019-03-28T17:50:17.620Z,61.50
2019-03-28T17:52:46.374Z,62.10
2019-03-28T17:55:19.500Z,61.70
2019-03-28T17:57:45.855Z,61.20
2019-03-28T18:00:14.225Z,61.60
2019-03-28T18:02:42.815Z,61.60
2019-03-28T18:05:15.267Z,60.90
2019-03-28T18:07:41.617Z,60.70
2019-03-28T18:10:09.994Z,61.60
2019-03-28T18:12:39.628Z,61.30
2019-03-28T18:15:08.193Z,62.00
2019-03-28T18:17:36.600Z,62.20
2019-03-28T18:20:08.008Z,62.20
2019-03-28T18:22:36.582Z,62.70
2019-03-28T18:25:08.138Z,62.50
2019-03-28T18:27:36.584Z,63.00
2019-03-28T18:30:06.648Z,63.40
2019-03-28T18:32:35.137Z,64.00
2019-03-28T18:35:07.699Z,64.60
2019-03-28T18:37:35.785Z,65.40
2019-03-28T18:40:06.140Z,65.30
2019-03-28T18:42:34.627Z,65.60
2019-03-28T18:45:03.720Z,65.40
2019-03-28T18:47:32.201Z,65.40
2019-03-28T18:50:03.441Z,65.40
2019-03-28T18:52:30.788Z,65.10
2019-03-28T18:54:59.212Z,65.60
2019-03-28T18:57:27.696Z,65.70
2019-03-28T18:59:56.122Z,66.00
2019-03-28T19:02:24.613Z,66.20
2019-03-28T19:04:53.004Z,66.30
2019-03-28T19:07:21.458Z,66.50
2019-03-28T19:09:49.884Z,67.10
2019-03-28T19:12:18.300Z,67.20
2019-03-28T19:14:46.717Z,67.40
2019-03-28T19:17:15.219Z,67.50
2019-03-28T19:19:43.810Z,67.70
2019-03-28T19:22:12.407Z,68.30
2019-03-28T19:24:40.821Z,68.10
2019-03-28T19:27:09.240Z,68.40
2019-03-28T19:29:37.724Z,68.70
2019-03-28T19:32:06.137Z,69.10
2019-03-28T19:34:34.628Z,70.00
2019-03-28T19:37:03.105Z,70.40
2019-03-28T19:39:32.960Z,70.60
2019-03-28T19:42:04.294Z,70.80
2019-03-28T19:44:31.513Z,71.30
2019-03-28T19:47:00.001Z,71.60
2019-03-28T19:49:28.544Z,71.90
2019-03-28T19:51:56.984Z,72.30
2019-03-28T19:54:25.368Z,72.20
2019-03-28T19:56:57.169Z,72.50
2019-03-28T19:59:23.989Z,72.80
2019-03-28T20:01:52.536Z,73.10
2019-03-28T20:04:20.966Z,73.70
2019-03-28T20:06:50.218Z,74.10
2019-03-28T20:09:18.761Z,74.80
2019-03-28T20:11:47.237Z,75.50
2019-03-28T20:14:15.869Z,76.30
2019-03-28T20:16:44.465Z,76.70
2019-03-28T20:19:12.961Z,77.20
2019-03-28T20:21:41.361Z,77.80
2019-03-28T20:24:09.767Z,78.00
2019-03-28T20:26:38.212Z,78.70
2019-03-28T20:29:06.726Z,79.10
2019-03-28T20:31:35.110Z,79.50
2019-03-28T20:34:03.813Z,79.70
2019-03-28T20:36:38.495Z,80.10
2019-03-28T20:39:04.323Z,80.60
2019-03-28T20:41:32.513Z,81.10
2019-03-28T20:44:01.048Z,81.30
2019-03-28T20:46:29.546Z,81.70
2019-03-28T20:48:58.008Z,81.90
2019-03-28T20:51:26.630Z,82.60
2019-03-28T20:53:55.400Z,83.00
2019-03-28T20:56:23.879Z,83.20
2019-03-28T20:58:52.280Z,83.50
2019-03-28T21:01:20.764Z,84.00
2019-03-28T21:03:49.769Z,84.50
2019-03-28T21:06:19.573Z,84.90
2019-03-28T21:08:48.165Z,85.20
2019-03-28T21:11:16.712Z,85.40
2019-03-28T21:13:45.165Z,87.00
2019-03-28T21:16:13.664Z,86.50
2019-03-28T21:18:42.144Z,86.70
2019-03-28T21:21:10.624Z,87.10
2019-03-28T21:23:39.076Z,87.50
2019-03-28T21:26:07.480Z,87.80
2019-03-28T21:28:46.401Z,88.30
2019-03-28T21:31:06.022Z,88.60
2019-03-28T21:33:34.503Z,88.90
2019-03-28T21:36:02.980Z,89.30
2019-03-28T21:38:31.469Z,89.50
2019-03-28T21:40:59.956Z,89.70
2019-03-28T21:43:28.433Z,90.00
2019-03-28T21:45:56.839Z,90.10
2019-03-28T21:48:25.295Z,90.30
2019-03-28T21:50:53.863Z,90.40
2019-03-28T21:53:22.453Z,90.70
2019-03-28T21:55:55.557Z,90.80
2019-03-28T21:58:20.992Z,90.90
2019-03-28T22:00:49.476Z,91.00
2019-03-28T22:03:17.896Z,91.10
2019-03-28T22:05:46.377Z,91.10
2019-03-28T22:08:14.773Z,91.20
2019-03-28T22:10:43.478Z,91.30
2019-03-28T22:13:12.432Z,91.40
2019-03-28T22:15:41.009Z,91.60
2019-03-28T22:18:09.448Z,91.70
2019-03-28T22:20:38.092Z,91.80
2019-03-28T22:23:06.501Z,91.90
2019-03-28T22:25:34.896Z,92.00
2019-03-28T22:28:03.299Z,92.10
2019-03-28T22:30:31.714Z,92.30
2019-03-28T22:33:00.120Z,92.30
2019-03-28T22:35:28.601Z,92.40
2019-03-28T22:37:57.025Z,92.40
2019-03-28T22:40:25.495Z,92.60
2019-03-28T22:42:53.915Z,92.60
2019-03-28T22:45:22.393Z,92.60
2019-03-28T22:47:50.876Z,92.70
2019-03-28T22:50:19.301Z,92.80
2019-03-28T22:52:49.649Z,92.80
2019-03-28T22:55:18.012Z,92.90
2019-03-28T22:57:46.482Z,92.90
2019-03-28T23:00:14.961Z,92.90
2019-03-28T23:02:43.436Z,92.90
2019-03-28T23:05:11.929Z,93.00
2019-03-28T23:07:42.467Z,93.40
2019-03-28T23:10:11.567Z,93.10
2019-03-28T23:12:40.044Z,93.10
2019-03-28T23:15:08.884Z,93.20
2019-03-28T23:17:55.660Z,93.10
2019-03-28T23:20:24.157Z,93.20
2019-03-28T23:22:52.550Z,93.10
2019-03-28T23:25:21.370Z,93.30
2019-03-28T23:27:49.767Z,93.40
2019-03-28T23:30:18.166Z,93.40
2019-03-28T23:32:46.739Z,93.60
2019-03-28T23:35:17.378Z,93.70
2019-03-28T23:37:45.793Z,93.70
2019-03-28T23:40:14.322Z,93.80
2019-03-28T23:42:43.862Z,93.90
2019-03-28T23:45:12.745Z,94.00
2019-03-28T23:47:41.926Z,94.00
2019-03-28T23:50:10.317Z,94.30
2019-03-28T23:52:38.720Z,94.10
2019-03-28T23:55:07.785Z,94.10
2019-03-28T23:57:36.188Z,94.50
